• Join FlightAware (Why Join?)
  • Login
  • US Flag 
01:10AM EDT


 

Airport Tracker/Info


-or-


 

Live Flight TrackerFlight Track Log ✈ DAL4165 ✈ 29-Apr-2013 ✈ KOKC - KATL

Flight Track Log - Related Links

Times and Time Zones

All times are in EDT time to prevent confusion due to time zone crossing. See the DAL4165 flight status page for this flight to view local times or setup timezone preferences in your user account.

Time Position Orientation Groundspeed Altitude Reporting Facility
EDT Latitude Longitude Course Direction KTS MPH feet Rate Location/Type
07:17PM 35.3769 -97.5944 90° East 151 174 1,700  Level Fort Worth Center
07:19PM 35.3603 -97.5358 109° East 180 207 3,600 1,800 Climbing Fort Worth Center
07:20PM 35.3625 -97.4517 88° East 210 242 5,700 2,700 Climbing Fort Worth Center
07:21PM 35.4000 -97.0713 90° East  Level FlightAware Approximate
07:21PM 35.3625 -97.3372 90° East 270 311 9,000  Level Fort Worth Center
07:22PM 35.4000 -96.9389 90° East  Level FlightAware Approximate
07:22PM 35.3686 -97.2303 86° East 298 343 10,700  Level Fort Worth Center
07:23PM 35.4000 -96.8064 90° East  Level FlightAware Approximate
07:23PM 35.3683 -97.0981 90° East 337 388 12,000  Level Fort Worth Center
07:24PM 35.3700 -96.9578 89° East 383 441 14,300 2,160 Climbing Fort Worth Center
07:25PM 35.3736 -96.8153 88° East 410 472 16,400 1,980 Climbing Fort Worth Center
07:27PM 35.3781 -96.5200 89° East 426 490 20,300 1,860 Climbing Fort Worth Center
07:28PM 35.3789 -96.3697 90° East 431 496 22,000 1,500 Climbing Fort Worth Center
07:29PM 35.3817 -96.2169 89° East 441 507 23,300 1,200 Climbing Fort Worth Center
07:30PM 35.3803 -96.0592 91° East 446 513 24,500 1,200 Climbing Fort Worth Center
07:31PM 35.3825 -95.8986 89° East 458 527 25,700 1,380 Climbing Fort Worth Center
07:32PM 35.3872 -95.6008 89° East 461 531 28,500 1,560 Climbing Memphis Center
07:33PM 35.3875 -95.4428 90° East 461 531 30,200 1,620 Climbing Memphis Center
07:34PM 35.3894 -95.2903 89° East 461 531 31,800 1,380 Climbing Memphis Center
07:35PM 35.3894 -95.1322 90° East 461 531 33,000 600 Climbing Memphis Center
07:36PM 35.3892 -94.9744 90° East 461 531 33,000  Level Memphis Center
07:37PM 35.3869 -94.8086 91° East 471 542 33,000  Level Memphis Center
07:38PM 35.3883 -94.6458 89° East 477 549 33,000  Level Memphis Center
07:39PM 35.3897 -94.4828 89° East 477 549 33,000  Level Memphis Center
07:40PM 35.3889 -94.3200 90° East 477 549 33,000  Level Memphis Center
07:41PM 35.3814 -94.1592 93° East 477 549 33,000  Level Memphis Center
07:42PM 35.3653 -93.9956 97° East 477 549 33,000  Level Memphis Center
07:43PM 35.3575 -93.8322 93° East 483 556 33,000  Level Memphis Center
07:44PM 35.3347 -93.6733 100° East 483 556 33,000  Level Memphis Center
07:45PM 35.2908 -93.5139 109° East 483 556 33,000  Level Memphis Center
07:46PM 35.2564 -93.3931 109° East 483 556 33,000  Level Memphis Center
07:47PM 35.2269 -93.2244 102° East 471 542 33,000  Level Memphis Center
07:48PM 35.2075 -93.0611 98° East 471 542 33,000  Level Memphis Center
07:49PM 35.2006 -92.9006 93° East 479 551 33,000  Level Memphis Center
07:50PM 35.1892 -92.7303 95° East 485 558 33,000  Level Memphis Center
07:51PM 35.1800 -92.5469 93° East 492 566 33,000  Level Memphis Center
07:52PM 35.1703 -92.3867 94° East 487 560 33,000  Level Memphis Center
07:53PM 35.1644 -92.2367 93° East 482 555 33,000  Level Memphis Center
07:54PM 35.1542 -92.0714 94° East 482 555 33,000  Level Memphis Center
07:55PM 35.1439 -91.9111 94° East 482 555 33,000  Level Memphis Center
07:56PM 35.1353 -91.7461 94° East 482 555 33,000  Level Memphis Center
07:57PM 35.1244 -91.5833 95° East 482 555 33,000  Level Memphis Center
07:58PM 35.1156 -91.4233 94° East 482 555 33,000  Level Memphis Center
07:59PM 35.1022 -91.2456 95° East 477 549 33,000  Level Memphis Center
08:00PM 35.0950 -91.0856 93° East 483 556 33,000  Level Memphis Center
08:01PM 35.0833 -90.9231 95° East 476 548 33,000  Level Memphis Center
08:02PM 35.0736 -90.7581 94° East 482 555 33,000  Level Memphis Center
08:03PM 35.0614 -90.6158 96° East 482 555 33,000  Level Memphis Center
08:04PM 35.0492 -90.4508 95° East 482 555 33,000  Level Memphis Center
08:05PM 35.0408 -90.2886 94° East 477 549 33,000  Level Memphis Center
08:06PM 35.0281 -90.1289 96° East 482 555 33,000  Level Memphis Center
08:07PM 35.0150 -89.9667 96° East 477 549 33,000  Level Memphis Center
08:08PM 34.9936 -89.7867 98° East 484 557 33,000  Level Memphis Center
08:09PM 34.9675 -89.6197 101° East 489 563 33,000  Level Memphis Center
08:10PM 34.9394 -89.4603 102° East 484 557 33,000  Level Memphis Center
08:11PM 34.9153 -89.3036 101° East 479 551 33,000  Level Memphis Center
08:12PM 34.8931 -89.1619 101° East 474 545 33,000  Level Memphis Center
08:13PM 34.8706 -89.0056 100° East 474 545 33,000  Level Memphis Center
08:14PM 34.8458 -88.8439 101° East 469 540 33,000  Level Memphis Center
08:15PM 34.8208 -88.6875 101° East 469 540 33,000  Level Memphis Center
08:16PM 34.7956 -88.5311 101° East 469 540 33,000  Level Memphis Center
08:17PM 34.7706 -88.3825 102° East 458 527 33,000  Level Memphis Center
08:18PM 34.7469 -88.2264 100° East 458 527 33,000  Level Memphis Center
08:19PM 34.7167 -88.0453 101° East 480 552 33,000  Level Memphis Center
08:20PM 34.6928 -87.8894 101° East 485 558 33,000  Level Memphis Center
08:21PM 34.6686 -87.7336 101° East 472 543 33,000  Level Memphis Center
08:24PM 34.6167 -87.3983 101° East 462 532 33,000  Level Atlanta Center
08:25PM 34.5856 -87.2381 103° East 467 537 33,000  Level Atlanta Center
08:26PM 34.5539 -87.0856 104° East 472 543 33,000  Level Atlanta Center
08:27PM 34.5242 -86.9306 103° East 472 543 33,000  Level Atlanta Center
08:28PM 34.4944 -86.7758 103° East 472 543 33,000  Level Atlanta Center
08:29PM 34.4642 -86.6211 103° East 472 543 33,000  Level Atlanta Center
08:30PM 34.4339 -86.4692 104° East 472 543 33,000  Level Atlanta Center
08:31PM 34.4036 -86.3172 104° East 472 543 33,000 -120 Level Atlanta Center
08:32PM 34.3728 -86.1603 103° East 472 543 32,800 -1,380 Descending Atlanta Center
08:33PM 34.3442 -86.0086 103° East 472 543 30,300 -2,520 Descending Atlanta Center
08:34PM 34.3131 -85.8569 104° East 472 543 27,800 -2,400 Descending Atlanta Center
08:35PM 34.2878 -85.7258 103° East 459 528 25,500 -2,400 Descending Atlanta Center
08:36PM 34.2564 -85.5769 104° East 454 522 23,000 -2,520 Descending Atlanta Center
08:37PM 34.2289 -85.4308 103° East 454 522 20,500 -2,580 Descending Atlanta Center
08:38PM 34.1992 -85.2894 104° East 448 516 17,900 -2,580 Descending Atlanta Center
08:39PM 34.1692 -85.1511 105° East 430 495 15,400 -1,980 Descending Atlanta Center
08:40PM 34.1011 -85.0422 127° Southeast 404 465 14,000 -1,020 Descending Atlanta Center
08:41PM 34.0247 -84.9436 133° Southeast 404 465 13,400 -840 Descending Atlanta Center
08:42PM 33.9419 -84.8375 133° Southeast 399 459 12,400 -720 Descending Atlanta Center
08:43PM 33.8694 -84.7444 133° Southeast 399 459 12,000 -240 Descending Atlanta Center
08:43PM 33.8333 -84.6833 125° Southeast 288 331 12,000  Level Atlanta TRACON
08:44PM 33.7833 -84.6333 140° Southeast 224 258 12,000 -180 Level Atlanta TRACON
08:45PM 33.7333 -84.5667 132° Southeast 219 252 11,700 -840 Descending Atlanta TRACON
08:46PM 33.7333 -84.5000 90° East 216 249 10,400 -1,560 Descending Atlanta TRACON
08:47PM 33.7333 -84.4333 90° East 221 254 8,800 -1,560 Descending Atlanta TRACON
08:48PM 33.7333 -84.3667 90° East 205 236 7,300 -1,920 Descending Atlanta TRACON
08:49PM 33.7333 -84.3000 90° East 205 236 5,000 -1,980 Descending Atlanta TRACON
08:50PM 33.7000 -84.2500 129° Southeast 198 228 3,400 -1,620 Descending Atlanta TRACON